sensor_id;sensor_type;location;lat;lon;timestamp;P1;durP1;ratioP1;P2;durP2;ratioP2
79054;SDS011;68452;47.186;-1.528;2023-04-01T00:02:01;27.10;;;3.08;;
79054;SDS011;68452;47.186;-1.528;2023-04-01T00:04:27;30.30;;;2.93;;
79054;SDS011;68452;47.186;-1.528;2023-04-01T00:06:53;25.60;;;2.95;;
79054;SDS011;68452;47.186;-1.528;2023-04-01T00:09:19;31.63;;;3.33;;
79054;SDS011;68452;47.186;-1.528;2023-04-01T00:11:45;28.52;;;3.15;;
79054;SDS011;68452;47.186;-1.528;2023-04-01T00:14:10;25.87;;;2.70;;
79054;SDS011;68452;47.186;-1.528;2023-04-01T00:16:37;26.77;;;3.42;;
79054;SDS011;68452;47.186;-1.528;2023-04-01T00:19:03;28.65;;;3.20;;
79054;SDS011;68452;47.186;-1.528;2023-04-01T00:21:29;25.10;;;2.50;;
79054;SDS011;68452;47.186;-1.528;2023-04-01T00:23:55;26.50;;;3.08;;
79054;SDS011;68452;47.186;-1.528;2023-04-01T00:26:21;29.55;;;3.08;;
79054;SDS011;68452;47.186;-1.528;2023-04-01T00:28:47;26.20;;;2.70;;
79054;SDS011;68452;47.186;-1.528;2023-04-01T00:31:13;35.17;;;4.20;;
79054;SDS011;68452;47.186;-1.528;2023-04-01T00:33:40;24.40;;;2.63;;
79054;SDS011;68452;47.186;-1.528;2023-04-01T00:36:10;26.13;;;2.33;;
79054;SDS011;68452;47.186;-1.528;2023-04-01T00:38:37;29.20;;;2.78;;
79054;SDS011;68452;47.186;-1.528;2023-04-01T00:41:04;25.00;;;3.35;;
79054;SDS011;68452;47.186;-1.528;2023-04-01T00:43:31;29.30;;;3.53;;
79054;SDS011;68452;47.186;-1.528;2023-04-01T00:45:57;30.55;;;3.75;;
79054;SDS011;68452;47.186;-1.528;2023-04-01T00:48:24;32.47;;;2.97;;
79054;SDS011;68452;47.186;-1.528;2023-04-01T00:51:03;23.60;;;2.65;;
79054;SDS011;68452;47.186;-1.528;2023-04-01T00:53:32;28.85;;;3.45;;
79054;SDS011;68452;47.186;-1.528;2023-04-01T00:56:05;26.73;;;3.10;;
79054;SDS011;68452;47.186;-1.528;2023-04-01T00:58:37;21.75;;;2.65;;
79054;SDS011;68452;47.186;-1.528;2023-04-01T01:01:06;26.52;;;2.88;;
79054;SDS011;68452;47.186;-1.528;2023-04-01T01:03:34;27.52;;;3.05;;
79054;SDS011;68452;47.186;-1.528;2023-04-01T01:12:11;25.45;;;2.78;;
79054;SDS011;68452;47.186;-1.528;2023-04-01T01:14:56;39.78;;;3.22;;
79054;SDS011;68452;47.186;-1.528;2023-04-01T01:17:52;27.52;;;2.60;;
79054;SDS011;68452;47.186;-1.528;2023-04-01T01:37:53;29.00;;;3.47;;
79054;SDS011;68452;47.186;-1.528;2023-04-01T01:40:24;32.72;;;4.20;;
79054;SDS011;68452;47.186;-1.528;2023-04-01T01:42:53;33.13;;;3.10;;
79054;SDS011;68452;47.186;-1.528;2023-04-01T01:45:23;25.90;;;2.55;;
79054;SDS011;68452;47.186;-1.528;2023-04-01T01:47:51;31.90;;;3.58;;
79054;SDS011;68452;47.186;-1.528;2023-04-01T01:50:18;28.27;;;3.37;;
79054;SDS011;68452;47.186;-1.528;2023-04-01T01:52:46;25.42;;;3.00;;
79054;SDS011;68452;47.186;-1.528;2023-04-01T01:55:23;23.55;;;3.10;;
79054;SDS011;68452;47.186;-1.528;2023-04-01T01:57:49;26.42;;;2.70;;
79054;SDS011;68452;47.186;-1.528;2023-04-01T02:00:16;35.90;;;2.83;;
79054;SDS011;68452;47.186;-1.528;2023-04-01T02:02:44;26.75;;;3.05;;
79054;SDS011;68452;47.186;-1.528;2023-04-01T02:05:31;31.13;;;2.90;;
79054;SDS011;68452;47.186;-1.528;2023-04-01T02:08:01;19.85;;;1.75;;
79054;SDS011;68452;47.186;-1.528;2023-04-01T02:10:35;26.40;;;2.97;;
79054;SDS011;68452;47.186;-1.528;2023-04-01T02:13:07;29.47;;;2.27;;
79054;SDS011;68452;47.186;-1.528;2023-04-01T02:15:42;25.98;;;3.17;;
79054;SDS011;68452;47.186;-1.528;2023-04-01T02:18:12;23.65;;;2.63;;
79054;SDS011;68452;47.186;-1.528;2023-04-01T02:20:39;25.45;;;2.72;;
79054;SDS011;68452;47.186;-1.528;2023-04-01T02:23:06;33.58;;;3.90;;
79054;SDS011;68452;47.186;-1.528;2023-04-01T02:25:34;28.67;;;2.93;;
79054;SDS011;68452;47.186;-1.528;2023-04-01T02:28:03;28.60;;;3.65;;
79054;SDS011;68452;47.186;-1.528;2023-04-01T02:30:32;23.65;;;2.65;;
79054;SDS011;68452;47.186;-1.528;2023-04-01T02:33:00;26.55;;;3.65;;
79054;SDS011;68452;47.186;-1.528;2023-04-01T02:35:28;37.70;;;3.50;;
79054;SDS011;68452;47.186;-1.528;2023-04-01T02:37:54;25.83;;;1.90;;
79054;SDS011;68452;47.186;-1.528;2023-04-01T02:40:20;34.13;;;3.38;;
79054;SDS011;68452;47.186;-1.528;2023-04-01T02:42:46;23.23;;;2.53;;
79054;SDS011;68452;47.186;-1.528;2023-04-01T02:45:13;24.30;;;3.15;;
79054;SDS011;68452;47.186;-1.528;2023-04-01T02:47:39;26.37;;;2.67;;
79054;SDS011;68452;47.186;-1.528;2023-04-01T02:50:05;33.25;;;2.20;;
79054;SDS011;68452;47.186;-1.528;2023-04-01T02:52:32;25.20;;;2.45;;
79054;SDS011;68452;47.186;-1.528;2023-04-01T02:54:58;23.38;;;2.35;;
79054;SDS011;68452;47.186;-1.528;2023-04-01T02:57:24;22.30;;;2.40;;
79054;SDS011;68452;47.186;-1.528;2023-04-01T02:59:50;21.05;;;2.53;;
79054;SDS011;68452;47.186;-1.528;2023-04-01T03:02:17;24.77;;;3.17;;
79054;SDS011;68452;47.186;-1.528;2023-04-01T03:04:43;26.27;;;2.25;;
79054;SDS011;68452;47.186;-1.528;2023-04-01T03:07:09;24.60;;;2.50;;
79054;SDS011;68452;47.186;-1.528;2023-04-01T03:09:36;23.25;;;2.22;;
79054;SDS011;68452;47.186;-1.528;2023-04-01T03:12:02;18.98;;;2.08;;
79054;SDS011;68452;47.186;-1.528;2023-04-01T03:14:28;26.60;;;2.88;;
79054;SDS011;68452;47.186;-1.528;2023-04-01T03:16:54;27.00;;;2.67;;
79054;SDS011;68452;47.186;-1.528;2023-04-01T03:19:20;25.45;;;2.05;;
79054;SDS011;68452;47.186;-1.528;2023-04-01T03:21:46;23.77;;;2.38;;
79054;SDS011;68452;47.186;-1.528;2023-04-01T03:24:12;17.50;;;1.83;;
79054;SDS011;68452;47.186;-1.528;2023-04-01T03:26:37;16.50;;;1.83;;
79054;SDS011;68452;47.186;-1.528;2023-04-01T03:29:03;22.52;;;1.80;;
79054;SDS011;68452;47.186;-1.528;2023-04-01T03:31:29;22.70;;;2.47;;
79054;SDS011;68452;47.186;-1.528;2023-04-01T03:33:55;23.20;;;1.80;;
79054;SDS011;68452;47.186;-1.528;2023-04-01T03:36:21;26.63;;;2.17;;
79054;SDS011;68452;47.186;-1.528;2023-04-01T03:38:47;18.98;;;1.65;;
79054;SDS011;68452;47.186;-1.528;2023-04-01T03:41:14;15.77;;;1.45;;
79054;SDS011;68452;47.186;-1.528;2023-04-01T03:43:41;20.07;;;1.70;;
79054;SDS011;68452;47.186;-1.528;2023-04-01T03:46:07;17.38;;;1.48;;
79054;SDS011;68452;47.186;-1.528;2023-04-01T03:48:33;14.02;;;1.40;;
79054;SDS011;68452;47.186;-1.528;2023-04-01T03:50:59;15.40;;;1.50;;
79054;SDS011;68452;47.186;-1.528;2023-04-01T03:53:25;16.20;;;2.00;;
79054;SDS011;68452;47.186;-1.528;2023-04-01T03:55:52;19.23;;;1.88;;
79054;SDS011;68452;47.186;-1.528;2023-04-01T03:58:18;14.77;;;1.23;;
79054;SDS011;68452;47.186;-1.528;2023-04-01T04:00:45;16.90;;;1.70;;
79054;SDS011;68452;47.186;-1.528;2023-04-01T04:03:11;18.30;;;1.80;;
79054;SDS011;68452;47.186;-1.528;2023-04-01T04:05:36;23.30;;;2.80;;
79054;SDS011;68452;47.186;-1.528;2023-04-01T04:08:02;21.45;;;2.63;;
79054;SDS011;68452;47.186;-1.528;2023-04-01T04:10:28;25.98;;;1.67;;
79054;SDS011;68452;47.186;-1.528;2023-04-01T04:12:54;21.60;;;1.70;;
79054;SDS011;68452;47.186;-1.528;2023-04-01T04:15:21;24.00;;;2.07;;
79054;SDS011;68452;47.186;-1.528;2023-04-01T04:17:47;23.15;;;2.38;;
79054;SDS011;68452;47.186;-1.528;2023-04-01T04:20:13;22.05;;;2.40;;
79054;SDS011;68452;47.186;-1.528;2023-04-01T04:22:39;31.50;;;2.70;;
79054;SDS011;68452;47.186;-1.528;2023-04-01T04:25:05;21.60;;;2.30;;
79054;SDS011;68452;47.186;-1.528;2023-04-01T04:27:31;22.40;;;2.00;;
79054;SDS011;68452;47.186;-1.528;2023-04-01T04:29:58;22.42;;;2.75;;
79054;SDS011;68452;47.186;-1.528;2023-04-01T04:32:24;27.70;;;3.22;;
79054;SDS011;68452;47.186;-1.528;2023-04-01T04:34:50;28.37;;;2.97;;
79054;SDS011;68452;47.186;-1.528;2023-04-01T04:37:15;22.98;;;2.10;;
79054;SDS011;68452;47.186;-1.528;2023-04-01T04:39:41;26.60;;;2.35;;
79054;SDS011;68452;47.186;-1.528;2023-04-01T04:42:07;20.63;;;2.57;;
79054;SDS011;68452;47.186;-1.528;2023-04-01T04:44:33;20.67;;;1.63;;
79054;SDS011;68452;47.186;-1.528;2023-04-01T04:46:58;24.80;;;2.63;;
79054;SDS011;68452;47.186;-1.528;2023-04-01T04:49:24;22.63;;;1.88;;
79054;SDS011;68452;47.186;-1.528;2023-04-01T04:51:50;15.13;;;1.52;;
79054;SDS011;68452;47.186;-1.528;2023-04-01T04:54:17;23.00;;;1.87;;
79054;SDS011;68452;47.186;-1.528;2023-04-01T04:56:43;27.92;;;2.40;;
79054;SDS011;68452;47.186;-1.528;2023-04-01T04:59:09;23.13;;;2.15;;
79054;SDS011;68452;47.186;-1.528;2023-04-01T05:01:35;17.10;;;1.75;;
79054;SDS011;68452;47.186;-1.528;2023-04-01T05:04:01;21.48;;;1.67;;
79054;SDS011;68452;47.186;-1.528;2023-04-01T05:06:27;21.50;;;2.67;;
79054;SDS011;68452;47.186;-1.528;2023-04-01T05:08:54;25.92;;;2.38;;
79054;SDS011;68452;47.186;-1.528;2023-04-01T05:11:20;17.73;;;2.30;;
79054;SDS011;68452;47.186;-1.528;2023-04-01T05:13:46;23.07;;;2.20;;
79054;SDS011;68452;47.186;-1.528;2023-04-01T05:16:14;20.73;;;1.70;;
79054;SDS011;68452;47.186;-1.528;2023-04-01T05:18:42;20.25;;;2.17;;
79054;SDS011;68452;47.186;-1.528;2023-04-01T05:21:09;22.23;;;2.63;;
79054;SDS011;68452;47.186;-1.528;2023-04-01T05:23:36;23.57;;;2.23;;
79054;SDS011;68452;47.186;-1.528;2023-04-01T05:26:06;17.73;;;1.80;;
79054;SDS011;68452;47.186;-1.528;2023-04-01T05:28:33;15.90;;;1.77;;
79054;SDS011;68452;47.186;-1.528;2023-04-01T05:31:00;22.42;;;1.88;;
79054;SDS011;68452;47.186;-1.528;2023-04-01T05:33:27;16.60;;;1.95;;
79054;SDS011;68452;47.186;-1.528;2023-04-01T05:35:53;22.10;;;2.13;;
79054;SDS011;68452;47.186;-1.528;2023-04-01T05:38:19;17.83;;;2.00;;
79054;SDS011;68452;47.186;-1.528;2023-04-01T05:40:45;22.60;;;2.63;;
79054;SDS011;68452;47.186;-1.528;2023-04-01T05:43:11;21.17;;;1.83;;
79054;SDS011;68452;47.186;-1.528;2023-04-01T05:45:37;23.58;;;2.05;;
79054;SDS011;68452;47.186;-1.528;2023-04-01T05:48:03;22.77;;;1.95;;
79054;SDS011;68452;47.186;-1.528;2023-04-01T05:50:29;21.35;;;1.95;;
79054;SDS011;68452;47.186;-1.528;2023-04-01T05:52:55;19.20;;;1.80;;
79054;SDS011;68452;47.186;-1.528;2023-04-01T05:55:21;20.50;;;2.47;;
79054;SDS011;68452;47.186;-1.528;2023-04-01T05:57:47;22.98;;;2.53;;
79054;SDS011;68452;47.186;-1.528;2023-04-01T06:00:15;20.70;;;1.57;;
79054;SDS011;68452;47.186;-1.528;2023-04-01T06:02:41;21.45;;;1.60;;
79054;SDS011;68452;47.186;-1.528;2023-04-01T06:05:18;22.48;;;1.63;;
79054;SDS011;68452;47.186;-1.528;2023-04-01T06:07:46;22.95;;;2.40;;
79054;SDS011;68452;47.186;-1.528;2023-04-01T06:10:13;25.25;;;2.03;;
79054;SDS011;68452;47.186;-1.528;2023-04-01T06:12:58;20.30;;;1.90;;
79054;SDS011;68452;47.186;-1.528;2023-04-01T06:34:53;21.08;;;2.55;;
79054;SDS011;68452;47.186;-1.528;2023-04-01T06:54:02;23.77;;;2.27;;
79054;SDS011;68452;47.186;-1.528;2023-04-01T06:56:38;15.68;;;1.27;;
79054;SDS011;68452;47.186;-1.528;2023-04-01T06:59:15;23.60;;;2.47;;
79054;SDS011;68452;47.186;-1.528;2023-04-01T07:04:29;21.63;;;2.03;;
79054;SDS011;68452;47.186;-1.528;2023-04-01T07:07:10;23.80;;;1.70;;
79054;SDS011;68452;47.186;-1.528;2023-04-01T07:09:40;24.90;;;2.00;;
79054;SDS011;68452;47.186;-1.528;2023-04-01T07:15:13;20.17;;;2.40;;
79054;SDS011;68452;47.186;-1.528;2023-04-01T07:17:41;21.98;;;1.40;;
79054;SDS011;68452;47.186;-1.528;2023-04-01T07:20:11;20.77;;;2.27;;
79054;SDS011;68452;47.186;-1.528;2023-04-01T07:22:47;21.25;;;1.80;;
79054;SDS011;68452;47.186;-1.528;2023-04-01T07:25:22;13.35;;;1.58;;
79054;SDS011;68452;47.186;-1.528;2023-04-01T07:28:00;19.55;;;1.70;;
79054;SDS011;68452;47.186;-1.528;2023-04-01T07:33:39;22.93;;;1.90;;
79054;SDS011;68452;47.186;-1.528;2023-04-01T07:46:59;17.17;;;1.23;;
79054;SDS011;68452;47.186;-1.528;2023-04-01T07:49:35;25.50;;;1.85;;
79054;SDS011;68452;47.186;-1.528;2023-04-01T07:52:13;16.75;;;1.27;;
79054;SDS011;68452;47.186;-1.528;2023-04-01T07:54:53;18.75;;;2.00;;
79054;SDS011;68452;47.186;-1.528;2023-04-01T07:57:28;15.90;;;1.65;;
79054;SDS011;68452;47.186;-1.528;2023-04-01T08:00:13;16.23;;;1.70;;
79054;SDS011;68452;47.186;-1.528;2023-04-01T08:14:11;17.50;;;1.23;;
79054;SDS011;68452;47.186;-1.528;2023-04-01T08:22:27;17.60;;;1.40;;
79054;SDS011;68452;47.186;-1.528;2023-04-01T08:24:59;13.82;;;1.38;;
79054;SDS011;68452;47.186;-1.528;2023-04-01T08:27:39;17.60;;;2.20;;
79054;SDS011;68452;47.186;-1.528;2023-04-01T08:30:19;22.65;;;0.98;;
79054;SDS011;68452;47.186;-1.528;2023-04-01T08:35:31;16.95;;;1.55;;
79054;SDS011;68452;47.186;-1.528;2023-04-01T08:38:00;17.55;;;0.80;;
79054;SDS011;68452;47.186;-1.528;2023-04-01T08:43:16;18.10;;;1.30;;
79054;SDS011;68452;47.186;-1.528;2023-04-01T08:48:42;4.82;;;0.50;;
79054;SDS011;68452;47.186;-1.528;2023-04-01T09:13:28;6.43;;;0.50;;
79054;SDS011;68452;47.186;-1.528;2023-04-01T09:16:07;6.03;;;0.30;;
79054;SDS011;68452;47.186;-1.528;2023-04-01T09:35:23;4.13;;;0.40;;
79054;SDS011;68452;47.186;-1.528;2023-04-01T09:38:19;5.15;;;0.68;;
79054;SDS011;68452;47.186;-1.528;2023-04-01T09:59:37;2.28;;;0.20;;
79054;SDS011;68452;47.186;-1.528;2023-04-01T10:30:33;5.90;;;0.40;;
79054;SDS011;68452;47.186;-1.528;2023-04-01T10:33:22;7.18;;;0.68;;
79054;SDS011;68452;47.186;-1.528;2023-04-01T10:45:09;4.47;;;0.10;;
79054;SDS011;68452;47.186;-1.528;2023-04-01T11:15:30;3.60;;;0.30;;
79054;SDS011;68452;47.186;-1.528;2023-04-01T11:21:23;4.90;;;0.22;;
79054;SDS011;68452;47.186;-1.528;2023-04-01T11:35:05;3.97;;;0.47;;
79054;SDS011;68452;47.186;-1.528;2023-04-01T11:40:21;9.93;;;0.50;;
79054;SDS011;68452;47.186;-1.528;2023-04-01T11:46:05;8.02;;;0.70;;
79054;SDS011;68452;47.186;-1.528;2023-04-01T11:56:49;11.63;;;0.40;;
79054;SDS011;68452;47.186;-1.528;2023-04-01T12:07:55;10.40;;;0.33;;
79054;SDS011;68452;47.186;-1.528;2023-04-01T12:10:27;11.13;;;0.57;;
79054;SDS011;68452;47.186;-1.528;2023-04-01T12:13:07;9.90;;;0.50;;
79054;SDS011;68452;47.186;-1.528;2023-04-01T12:21:13;4.60;;;0.63;;
79054;SDS011;68452;47.186;-1.528;2023-04-01T12:26:33;6.22;;;0.30;;
79054;SDS011;68452;47.186;-1.528;2023-04-01T12:48:33;12.40;;;1.00;;
79054;SDS011;68452;47.186;-1.528;2023-04-01T12:54:08;9.27;;;0.52;;
79054;SDS011;68452;47.186;-1.528;2023-04-01T13:08:11;8.63;;;0.70;;
79054;SDS011;68452;47.186;-1.528;2023-04-01T13:11:08;11.88;;;0.90;;
79054;SDS011;68452;47.186;-1.528;2023-04-01T13:16:29;11.18;;;0.82;;
79054;SDS011;68452;47.186;-1.528;2023-04-01T13:19:07;12.82;;;1.42;;
79054;SDS011;68452;47.186;-1.528;2023-04-01T13:24:41;15.63;;;0.93;;
79054;SDS011;68452;47.186;-1.528;2023-04-01T13:27:29;13.60;;;1.03;;
79054;SDS011;68452;47.186;-1.528;2023-04-01T13:30:16;14.88;;;1.30;;
79054;SDS011;68452;47.186;-1.528;2023-04-01T13:38:56;16.15;;;1.80;;
79054;SDS011;68452;47.186;-1.528;2023-04-01T13:41:30;16.13;;;2.00;;
79054;SDS011;68452;47.186;-1.528;2023-04-01T13:44:11;10.27;;;0.95;;
79054;SDS011;68452;47.186;-1.528;2023-04-01T13:55:23;11.83;;;1.00;;
79054;SDS011;68452;47.186;-1.528;2023-04-01T14:00:50;8.40;;;0.63;;
79054;SDS011;68452;47.186;-1.528;2023-04-01T14:03:32;6.32;;;0.38;;
79054;SDS011;68452;47.186;-1.528;2023-04-01T14:17:12;5.20;;;0.57;;
79054;SDS011;68452;47.186;-1.528;2023-04-01T14:22:38;5.43;;;0.80;;
79054;SDS011;68452;47.186;-1.528;2023-04-01T14:25:30;9.02;;;0.50;;
79054;SDS011;68452;47.186;-1.528;2023-04-01T14:31:13;3.97;;;0.35;;
79054;SDS011;68452;47.186;-1.528;2023-04-01T14:33:46;4.15;;;0.47;;
79054;SDS011;68452;47.186;-1.528;2023-04-01T14:39:07;8.43;;;0.98;;
79054;SDS011;68452;47.186;-1.528;2023-04-01T14:50:40;13.83;;;0.90;;
79054;SDS011;68452;47.186;-1.528;2023-04-01T14:55:58;7.57;;;0.93;;
79054;SDS011;68452;47.186;-1.528;2023-04-01T14:58:42;9.98;;;1.27;;
79054;SDS011;68452;47.186;-1.528;2023-04-01T15:09:32;6.93;;;0.95;;
79054;SDS011;68452;47.186;-1.528;2023-04-01T15:12:32;7.03;;;0.57;;
79054;SDS011;68452;47.186;-1.528;2023-04-01T15:15:21;7.90;;;0.63;;
79054;SDS011;68452;47.186;-1.528;2023-04-01T15:18:33;8.17;;;0.53;;
79054;SDS011;68452;47.186;-1.528;2023-04-01T15:21:30;8.95;;;1.10;;
79054;SDS011;68452;47.186;-1.528;2023-04-01T15:43:48;10.48;;;0.60;;
79054;SDS011;68452;47.186;-1.528;2023-04-01T15:51:43;6.88;;;0.50;;
79054;SDS011;68452;47.186;-1.528;2023-04-01T16:03:31;13.40;;;0.90;;
79054;SDS011;68452;47.186;-1.528;2023-04-01T16:05:54;12.80;;;0.70;;
79054;SDS011;68452;47.186;-1.528;2023-04-01T16:16:38;11.73;;;0.85;;
79054;SDS011;68452;47.186;-1.528;2023-04-01T16:19:41;10.00;;;1.00;;
79054;SDS011;68452;47.186;-1.528;2023-04-01T16:31:03;14.70;;;0.82;;
79054;SDS011;68452;47.186;-1.528;2023-04-01T16:35:58;8.67;;;1.00;;
79054;SDS011;68452;47.186;-1.528;2023-04-01T16:39:06;15.73;;;1.13;;
79054;SDS011;68452;47.186;-1.528;2023-04-01T16:41:57;13.85;;;1.73;;
79054;SDS011;68452;47.186;-1.528;2023-04-01T16:44:31;13.53;;;1.57;;
79054;SDS011;68452;47.186;-1.528;2023-04-01T16:47:23;11.32;;;1.27;;
79054;SDS011;68452;47.186;-1.528;2023-04-01T16:50:17;13.25;;;1.05;;
79054;SDS011;68452;47.186;-1.528;2023-04-01T16:58:42;14.77;;;1.20;;
79054;SDS011;68452;47.186;-1.528;2023-04-01T17:01:55;13.18;;;1.45;;
79054;SDS011;68452;47.186;-1.528;2023-04-01T17:04:45;20.00;;;1.70;;
79054;SDS011;68452;47.186;-1.528;2023-04-01T17:15:45;16.88;;;1.25;;
79054;SDS011;68452;47.186;-1.528;2023-04-01T17:20:55;13.10;;;1.48;;
79054;SDS011;68452;47.186;-1.528;2023-04-01T17:31:40;13.68;;;1.52;;
79054;SDS011;68452;47.186;-1.528;2023-04-01T17:34:18;19.80;;;2.20;;
79054;SDS011;68452;47.186;-1.528;2023-04-01T17:40:08;12.00;;;1.00;;
79054;SDS011;68452;47.186;-1.528;2023-04-01T17:45:21;14.93;;;1.63;;
79054;SDS011;68452;47.186;-1.528;2023-04-01T17:48:08;14.68;;;1.00;;
79054;SDS011;68452;47.186;-1.528;2023-04-01T18:07:48;13.50;;;1.33;;
79054;SDS011;68452;47.186;-1.528;2023-04-01T18:10:25;12.65;;;1.55;;
79054;SDS011;68452;47.186;-1.528;2023-04-01T18:21:27;12.52;;;1.23;;
79054;SDS011;68452;47.186;-1.528;2023-04-01T18:27:11;19.30;;;1.73;;
79054;SDS011;68452;47.186;-1.528;2023-04-01T18:35:45;13.35;;;1.23;;
79054;SDS011;68452;47.186;-1.528;2023-04-01T18:43:33;12.55;;;1.38;;
79054;SDS011;68452;47.186;-1.528;2023-04-01T18:49:15;19.30;;;2.55;;
79054;SDS011;68452;47.186;-1.528;2023-04-01T18:51:48;13.15;;;2.22;;
79054;SDS011;68452;47.186;-1.528;2023-04-01T18:54:41;16.67;;;2.58;;
79054;SDS011;68452;47.186;-1.528;2023-04-01T18:57:55;13.90;;;2.30;;
79054;SDS011;68452;47.186;-1.528;2023-04-01T19:00:44;25.10;;;2.90;;
79054;SDS011;68452;47.186;-1.528;2023-04-01T19:06:21;19.40;;;2.33;;
79054;SDS011;68452;47.186;-1.528;2023-04-01T19:08:53;17.85;;;1.98;;
79054;SDS011;68452;47.186;-1.528;2023-04-01T19:11:35;21.92;;;2.90;;
79054;SDS011;68452;47.186;-1.528;2023-04-01T19:19:38;19.10;;;2.45;;
79054;SDS011;68452;47.186;-1.528;2023-04-01T19:24:47;15.23;;;2.30;;
79054;SDS011;68452;47.186;-1.528;2023-04-01T19:27:36;18.77;;;1.97;;
79054;SDS011;68452;47.186;-1.528;2023-04-01T19:35:53;15.13;;;1.80;;
79054;SDS011;68452;47.186;-1.528;2023-04-01T19:38:31;13.15;;;1.75;;
79054;SDS011;68452;47.186;-1.528;2023-04-01T19:41:17;15.20;;;2.43;;
79054;SDS011;68452;47.186;-1.528;2023-04-01T19:44:02;22.20;;;3.47;;
79054;SDS011;68452;47.186;-1.528;2023-04-01T19:52:33;12.95;;;1.80;;
79054;SDS011;68452;47.186;-1.528;2023-04-01T19:58:10;16.15;;;1.60;;
79054;SDS011;68452;47.186;-1.528;2023-04-01T20:00:58;17.52;;;1.67;;
79054;SDS011;68452;47.186;-1.528;2023-04-01T20:06:22;12.40;;;1.25;;
79054;SDS011;68452;47.186;-1.528;2023-04-01T20:09:07;13.40;;;1.53;;
79054;SDS011;68452;47.186;-1.528;2023-04-01T20:19:36;16.60;;;1.92;;
79054;SDS011;68452;47.186;-1.528;2023-04-01T20:22:16;13.33;;;1.77;;
79054;SDS011;68452;47.186;-1.528;2023-04-01T20:24:54;15.02;;;1.67;;
79054;SDS011;68452;47.186;-1.528;2023-04-01T20:27:35;17.20;;;1.80;;
79054;SDS011;68452;47.186;-1.528;2023-04-01T20:32:52;17.83;;;2.03;;
79054;SDS011;68452;47.186;-1.528;2023-04-01T20:47:12;16.67;;;2.00;;
79054;SDS011;68452;47.186;-1.528;2023-04-01T20:52:41;12.60;;;1.50;;
79054;SDS011;68452;47.186;-1.528;2023-04-01T20:55:25;11.35;;;1.58;;
79054;SDS011;68452;47.186;-1.528;2023-04-01T21:07:33;13.45;;;1.73;;
79054;SDS011;68452;47.186;-1.528;2023-04-01T21:10:29;12.90;;;1.48;;
79054;SDS011;68452;47.186;-1.528;2023-04-01T21:27:17;13.77;;;1.67;;
79054;SDS011;68452;47.186;-1.528;2023-04-01T21:30:02;11.70;;;1.38;;
79054;SDS011;68452;47.186;-1.528;2023-04-01T21:35:57;11.15;;;1.17;;
79054;SDS011;68452;47.186;-1.528;2023-04-01T21:55:56;11.70;;;1.55;;
79054;SDS011;68452;47.186;-1.528;2023-04-01T22:03:59;13.35;;;1.50;;
79054;SDS011;68452;47.186;-1.528;2023-04-01T22:06:40;10.38;;;1.27;;
79054;SDS011;68452;47.186;-1.528;2023-04-01T22:09:19;12.85;;;1.23;;
79054;SDS011;68452;47.186;-1.528;2023-04-01T22:11:59;8.98;;;0.65;;
79054;SDS011;68452;47.186;-1.528;2023-04-01T22:19:59;5.38;;;0.60;;
79054;SDS011;68452;47.186;-1.528;2023-04-01T22:22:58;6.00;;;0.50;;
79054;SDS011;68452;47.186;-1.528;2023-04-01T22:29:03;4.83;;;0.30;;
79054;SDS011;68452;47.186;-1.528;2023-04-01T22:31:44;7.25;;;0.60;;
79054;SDS011;68452;47.186;-1.528;2023-04-01T22:37:17;4.75;;;0.30;;
79054;SDS011;68452;47.186;-1.528;2023-04-01T22:45:29;2.42;;;0.25;;
79054;SDS011;68452;47.186;-1.528;2023-04-01T22:50:55;3.20;;;0.43;;
79054;SDS011;68452;47.186;-1.528;2023-04-01T22:56:55;3.55;;;0.20;;
79054;SDS011;68452;47.186;-1.528;2023-04-01T23:02:17;6.10;;;0.20;;
79054;SDS011;68452;47.186;-1.528;2023-04-01T23:04:48;4.68;;;0.35;;
79054;SDS011;68452;47.186;-1.528;2023-04-01T23:10:22;3.72;;;0.10;;
79054;SDS011;68452;47.186;-1.528;2023-04-01T23:13:05;3.97;;;0.20;;
79054;SDS011;68452;47.186;-1.528;2023-04-01T23:15:45;5.38;;;0.30;;
79054;SDS011;68452;47.186;-1.528;2023-04-01T23:29:23;3.40;;;0.30;;
79054;SDS011;68452;47.186;-1.528;2023-04-01T23:31:58;2.30;;;0.68;;
79054;SDS011;68452;47.186;-1.528;2023-04-01T23:34:32;4.13;;;0.20;;
79054;SDS011;68452;47.186;-1.528;2023-04-01T23:37:12;6.68;;;0.85;;
79054;SDS011;68452;47.186;-1.528;2023-04-01T23:39:42;2.90;;;0.20;;
79054;SDS011;68452;47.186;-1.528;2023-04-01T23:44:55;3.90;;;0.30;;
79054;SDS011;68452;47.186;-1.528;2023-04-01T23:47:35;4.03;;;0.47;;
79054;SDS011;68452;47.186;-1.528;2023-04-01T23:52:41;2.60;;;0.38;;
79054;SDS011;68452;47.186;-1.528;2023-04-01T23:58:37;1.75;;;0.15;;
